createdAt,value
2019-01-27T00:03:36.510Z,5.77
2019-01-27T00:06:24.396Z,5.97
2019-01-27T00:08:53.495Z,6.73
2019-01-27T00:11:22.163Z,5.93
2019-01-27T00:14:10.092Z,5.57
2019-01-27T00:16:38.956Z,6.40
2019-01-27T00:19:27.192Z,6.33
2019-01-27T00:22:15.135Z,5.80
2019-01-27T00:25:03.120Z,6.47
2019-01-27T00:27:51.035Z,6.10
2019-01-27T00:30:39.211Z,5.13
2019-01-27T00:33:27.104Z,6.23
2019-01-27T00:36:15.035Z,5.70
2019-01-27T00:38:55.992Z,5.80
2019-01-27T00:41:24.611Z,6.10
2019-01-27T00:43:53.179Z,5.90
2019-01-27T00:46:41.136Z,6.30
2019-01-27T00:49:29.069Z,5.33
2019-01-27T00:52:16.980Z,5.80
2019-01-27T00:54:45.564Z,5.83
2019-01-27T00:57:33.488Z,5.70
2019-01-27T01:00:22.351Z,4.80
2019-01-27T01:02:50.932Z,5.40
2019-01-27T01:05:19.531Z,5.90
2019-01-27T01:08:07.658Z,6.23
2019-01-27T01:10:55.795Z,5.50
2019-01-27T01:13:43.732Z,5.33
2019-01-27T01:16:31.656Z,5.87
2019-01-27T01:19:00.509Z,4.87
2019-01-27T01:21:48.411Z,5.90
2019-01-27T01:24:36.356Z,5.97
2019-01-27T01:27:24.261Z,6.10
2019-01-27T01:29:52.908Z,5.97
2019-01-27T01:32:21.503Z,6.53
2019-01-27T01:35:09.700Z,5.90
2019-01-27T01:37:50.732Z,6.30
2019-01-27T01:43:33.708Z,6.87
2019-01-27T01:46:21.624Z,6.67
2019-01-27T01:49:09.532Z,6.97
2019-01-27T01:51:57.735Z,7.50
2019-01-27T01:54:45.607Z,7.30
2019-01-27T01:57:33.531Z,7.60
2019-01-27T02:00:21.779Z,7.53
2019-01-27T02:03:09.739Z,7.73
2019-01-27T02:05:38.294Z,8.10
2019-01-27T02:08:26.215Z,7.77
2019-01-27T02:10:54.795Z,8.93
2019-01-27T02:13:42.720Z,8.13
2019-01-27T02:16:30.616Z,8.20
2019-01-27T02:19:18.534Z,7.93
2019-01-27T02:22:06.442Z,8.10
2019-01-27T02:24:54.440Z,8.30
2019-01-27T02:27:23.275Z,8.50
2019-01-27T02:30:11.326Z,9.70
2019-01-27T02:32:59.499Z,8.83
2019-01-27T02:35:28.084Z,8.97
2019-01-27T02:38:09.182Z,9.20
2019-01-27T02:40:50.202Z,8.03
2019-01-27T02:43:31.015Z,7.87
2019-01-27T02:45:59.645Z,7.90
2019-01-27T02:48:47.819Z,8.20
2019-01-27T02:51:35.760Z,7.97
2019-01-27T02:54:04.556Z,8.30
2019-01-27T02:57:11.783Z,7.37
2019-01-27T02:59:59.700Z,7.77
2019-01-27T03:02:28.287Z,7.50
2019-01-27T03:05:35.275Z,7.60
2019-01-27T03:08:23.280Z,7.70
2019-01-27T03:11:11.203Z,8.77
2019-01-27T03:13:59.152Z,7.90
2019-01-27T03:19:55.735Z,6.83
2019-01-27T03:22:43.635Z,7.03
2019-01-27T03:25:32.056Z,7.30
2019-01-27T03:28:20.228Z,7.80
2019-01-27T03:31:08.377Z,6.83
2019-01-27T03:33:56.264Z,6.23
2019-01-27T03:36:44.201Z,7.47
2019-01-27T03:39:25.053Z,6.63
2019-01-27T03:41:53.635Z,6.83
2019-01-27T03:44:41.542Z,6.40
2019-01-27T03:47:29.485Z,5.50
2019-01-27T03:50:17.416Z,6.33
2019-01-27T03:53:05.337Z,6.00
2019-01-27T03:55:53.240Z,5.93
2019-01-27T03:58:41.156Z,5.63
2019-01-27T04:01:09.992Z,5.80
2019-01-27T04:03:57.911Z,5.23
2019-01-27T04:06:26.475Z,4.87
2019-01-27T04:09:14.747Z,4.93
2019-01-27T04:11:43.315Z,5.60
2019-01-27T04:14:31.239Z,4.80
2019-01-27T04:17:19.156Z,4.80
2019-01-27T04:20:09.011Z,4.53
2019-01-27T04:22:56.913Z,4.40
2019-01-27T04:25:44.836Z,4.80
2019-01-27T04:28:32.991Z,4.73
2019-01-27T04:31:21.240Z,4.57
2019-01-27T04:33:49.808Z,4.43
2019-01-27T04:36:37.765Z,4.40
2019-01-27T04:39:09.512Z,4.33
2019-01-27T04:41:57.099Z,4.23
2019-01-27T04:44:45.023Z,4.03
2019-01-27T04:47:32.952Z,3.53
2019-01-27T04:50:21.133Z,3.90
2019-01-27T04:53:09.025Z,4.10
2019-01-27T04:55:56.947Z,3.50
2019-01-27T04:58:44.864Z,3.80
2019-01-27T05:01:32.779Z,3.97
2019-01-27T05:04:20.462Z,3.30
2019-01-27T05:07:08.625Z,3.57
2019-01-27T05:09:56.556Z,3.60
2019-01-27T05:12:44.735Z,3.37
2019-01-27T05:15:13.942Z,3.23
2019-01-27T05:18:01.868Z,3.30
2019-01-27T05:20:30.433Z,3.00
2019-01-27T05:23:18.367Z,4.07
2019-01-27T05:26:06.295Z,5.57
2019-01-27T05:28:54.215Z,3.40
2019-01-27T05:31:22.824Z,3.50
2019-01-27T05:34:10.748Z,3.33
2019-01-27T05:36:58.657Z,3.50
2019-01-27T05:39:27.527Z,3.60
2019-01-27T05:42:15.464Z,3.50
2019-01-27T05:45:03.415Z,3.73
2019-01-27T05:47:51.312Z,3.20
2019-01-27T05:50:39.236Z,3.60
2019-01-27T05:53:27.360Z,7.00
2019-01-27T05:56:15.276Z,4.00
2019-01-27T05:59:03.480Z,3.50
2019-01-27T06:01:32.035Z,3.50
2019-01-27T06:04:19.948Z,3.70
2019-01-27T06:07:07.853Z,3.80
2019-01-27T06:09:36.668Z,3.30
2019-01-27T06:12:24.795Z,3.60
2019-01-27T06:15:13.153Z,3.37
2019-01-27T06:18:01.093Z,3.23
2019-01-27T06:20:49.024Z,6.10
2019-01-27T06:23:36.968Z,3.37
2019-01-27T06:26:24.901Z,3.30
2019-01-27T06:29:12.817Z,3.53
2019-01-27T06:31:41.391Z,3.30
2019-01-27T06:34:29.304Z,3.37
2019-01-27T06:37:24.521Z,3.57
2019-01-27T06:39:59.348Z,3.40
2019-01-27T06:42:40.344Z,3.43
2019-01-27T06:45:21.446Z,3.33
2019-01-27T06:47:50.075Z,4.00
2019-01-27T06:50:45.421Z,3.70
2019-01-27T06:53:33.625Z,3.30
2019-01-27T06:56:02.204Z,3.00
2019-01-27T06:59:09.185Z,3.30
2019-01-27T07:02:16.167Z,2.97
2019-01-27T07:05:14.745Z,2.80
2019-01-27T07:08:21.723Z,3.13
2019-01-27T07:11:28.735Z,3.23
2019-01-27T07:14:16.387Z,3.30
2019-01-27T07:17:23.469Z,3.23
2019-01-27T07:20:30.983Z,3.00
2019-01-27T07:23:18.676Z,2.87
2019-01-27T07:26:25.668Z,3.33
2019-01-27T07:29:32.692Z,3.27
2019-01-27T07:35:38.919Z,3.03
2019-01-27T07:38:45.922Z,2.80
2019-01-27T07:41:45.864Z,3.30
2019-01-27T07:44:35.456Z,3.20
2019-01-27T07:47:35.848Z,3.27
2019-01-27T07:50:35.514Z,3.13
2019-01-27T07:53:23.065Z,3.40
2019-01-27T07:56:23.347Z,3.50
2019-01-27T07:59:11.023Z,3.20
2019-01-27T08:01:58.706Z,3.33
2019-01-27T08:04:33.895Z,3.30
2019-01-27T08:07:29.731Z,2.87
2019-01-27T08:10:17.414Z,3.00
2019-01-27T08:13:24.416Z,2.90
2019-01-27T08:16:31.510Z,3.33
2019-01-27T08:19:38.516Z,3.27
2019-01-27T08:22:22.571Z,3.00
2019-01-27T08:25:30.715Z,3.50
2019-01-27T08:28:37.729Z,3.47
2019-01-27T08:31:44.991Z,3.37
2019-01-27T08:34:52.237Z,3.20
2019-01-27T08:37:59.223Z,3.30
2019-01-27T08:40:51.440Z,3.57
2019-01-27T08:43:58.439Z,3.47
2019-01-27T08:46:50.639Z,4.23
2019-01-27T08:49:38.547Z,3.63
2019-01-27T08:52:07.140Z,3.70
2019-01-27T08:54:55.067Z,3.43
2019-01-27T08:57:23.647Z,3.47
2019-01-27T09:00:13.273Z,3.93
2019-01-27T09:06:19.351Z,4.13
2019-01-27T09:09:18.567Z,2.83
2019-01-27T09:12:25.651Z,3.30
2019-01-27T09:15:13.404Z,3.20
2019-01-27T09:20:53.771Z,2.70
2019-01-27T09:23:41.444Z,4.70
2019-01-27T09:26:29.180Z,3.20
2019-01-27T09:29:03.149Z,2.70
2019-01-27T09:32:10.233Z,2.33
2019-01-27T09:35:17.302Z,3.03
2019-01-27T09:38:24.295Z,2.67
2019-01-27T09:41:24.401Z,2.67
2019-01-27T09:44:12.120Z,2.57
2019-01-27T09:47:19.117Z,2.97
2019-01-27T09:50:26.776Z,3.10
2019-01-27T09:53:33.824Z,3.03
2019-01-27T09:56:21.841Z,2.80
2019-01-27T09:59:28.889Z,3.23
2019-01-27T10:02:36.278Z,3.00
2019-01-27T10:05:43.369Z,2.93
2019-01-27T10:08:50.386Z,2.60
2019-01-27T10:11:38.045Z,3.00
2019-01-27T10:14:45.052Z,2.70
2019-01-27T10:17:52.071Z,3.03
2019-01-27T10:20:40.005Z,2.80
2019-01-27T10:23:27.687Z,2.53
2019-01-27T10:26:34.661Z,2.67
2019-01-27T10:29:28.547Z,3.80
2019-01-27T10:32:04.275Z,2.87
2019-01-27T10:35:11.288Z,3.13
2019-01-27T10:38:18.298Z,3.07
2019-01-27T10:41:20.487Z,2.67
2019-01-27T10:44:06.561Z,3.10
2019-01-27T10:46:54.215Z,2.60
2019-01-27T10:49:39.159Z,2.87
2019-01-27T10:52:26.832Z,3.07
2019-01-27T10:55:20.995Z,6.90
2019-01-27T10:58:08.647Z,2.83
2019-01-27T11:01:15.655Z,2.83
2019-01-27T11:04:22.647Z,2.97
2019-01-27T11:07:10.324Z,2.60
2019-01-27T11:09:58.032Z,3.00
2019-01-27T11:13:05.016Z,3.10
2019-01-27T11:16:00.501Z,3.00
2019-01-27T11:18:48.224Z,2.73
2019-01-27T11:21:55.284Z,3.17
2019-01-27T11:25:02.271Z,2.63
2019-01-27T11:27:50.203Z,2.73
2019-01-27T11:30:37.873Z,2.83
2019-01-27T11:33:25.547Z,3.37
2019-01-27T11:36:32.794Z,2.77
2019-01-27T11:39:40.025Z,2.90
2019-01-27T11:42:27.916Z,2.60
2019-01-27T11:45:35.008Z,2.60
2019-01-27T11:48:42.001Z,2.90
2019-01-27T11:51:43.833Z,2.50
2019-01-27T11:54:12.669Z,2.40
2019-01-27T11:57:00.715Z,5.63
2019-01-27T11:59:48.683Z,2.70
2019-01-27T12:02:17.262Z,2.37
2019-01-27T12:05:05.269Z,2.67
2019-01-27T12:07:53.188Z,2.80
2019-01-27T12:10:21.803Z,2.90
2019-01-27T12:12:50.631Z,2.73
2019-01-27T12:15:38.547Z,2.40
2019-01-27T12:18:26.503Z,2.50
2019-01-27T12:20:55.073Z,3.07
2019-01-27T12:23:43.259Z,2.57
2019-01-27T12:26:12.152Z,2.77
2019-01-27T12:29:00.052Z,3.77
2019-01-27T12:31:47.980Z,2.47
2019-01-27T12:34:16.817Z,2.63
2019-01-27T12:37:04.737Z,2.40
2019-01-27T12:39:52.748Z,2.50
2019-01-27T12:42:21.323Z,2.40
2019-01-27T12:45:09.827Z,2.53
2019-01-27T12:47:57.776Z,2.83
2019-01-27T12:50:45.797Z,2.50
2019-01-27T12:53:33.695Z,2.20
2019-01-27T12:56:02.348Z,2.40
2019-01-27T12:58:50.290Z,2.50
2019-01-27T13:01:38.707Z,2.60
2019-01-27T13:04:07.294Z,3.00
2019-01-27T13:06:35.894Z,2.57
2019-01-27T13:09:23.814Z,2.33
2019-01-27T13:12:12.008Z,2.60
2019-01-27T13:14:40.840Z,4.57
2019-01-27T13:17:28.751Z,2.40
2019-01-27T13:19:57.352Z,2.20
2019-01-27T13:22:45.504Z,3.47
2019-01-27T13:25:14.884Z,2.60
2019-01-27T13:27:43.470Z,4.20
2019-01-27T13:30:33.028Z,2.23
2019-01-27T13:33:20.949Z,2.20
2019-01-27T13:35:49.842Z,2.47
2019-01-27T13:38:18.407Z,2.33
2019-01-27T13:41:06.611Z,2.20
2019-01-27T13:43:35.524Z,4.40
2019-01-27T13:46:23.721Z,2.40
2019-01-27T13:48:52.570Z,2.00
2019-01-27T13:51:40.551Z,2.83
2019-01-27T13:54:09.384Z,2.40
2019-01-27T13:56:57.332Z,2.17
2019-01-27T13:59:45.260Z,2.83
2019-01-27T14:02:33.307Z,2.23
2019-01-27T14:05:21.247Z,4.33
2019-01-27T14:08:09.199Z,1.93
2019-01-27T14:10:57.344Z,2.13
2019-01-27T14:13:45.303Z,1.97
2019-01-27T14:16:13.865Z,2.47
2019-01-27T14:19:01.822Z,1.83
2019-01-27T14:21:30.396Z,3.80
2019-01-27T14:23:59.024Z,1.93
2019-01-27T14:26:47.008Z,2.73
2019-01-27T14:29:15.573Z,2.30
2019-01-27T14:31:44.245Z,2.07
2019-01-27T14:34:32.178Z,2.17
2019-01-27T14:37:20.112Z,1.83
2019-01-27T14:40:11.368Z,1.80
2019-01-27T14:42:40.023Z,3.37
2019-01-27T14:45:28.336Z,1.80
2019-01-27T14:47:57.165Z,2.20
2019-01-27T14:50:46.408Z,2.20
2019-01-27T14:53:34.316Z,2.40
2019-01-27T14:56:02.907Z,1.73
2019-01-27T14:58:50.930Z,2.40
2019-01-27T15:01:38.897Z,3.00
2019-01-27T15:04:07.740Z,2.10
2019-01-27T15:06:55.656Z,1.97
2019-01-27T15:09:43.612Z,2.00
2019-01-27T15:12:31.530Z,1.80
2019-01-27T15:15:19.777Z,2.10
2019-01-27T15:18:07.703Z,1.87
2019-01-27T15:20:58.042Z,1.70
2019-01-27T15:23:46.052Z,2.30
2019-01-27T15:26:34.080Z,1.67
2019-01-27T15:29:02.942Z,2.00
2019-01-27T15:31:31.805Z,1.80
2019-01-27T15:34:00.629Z,1.90
2019-01-27T15:36:29.244Z,1.80
2019-01-27T15:39:17.243Z,2.07
2019-01-27T15:41:45.899Z,2.20
2019-01-27T15:44:27.021Z,1.93
2019-01-27T15:47:07.984Z,3.03
2019-01-27T15:49:48.755Z,2.67
2019-01-27T15:52:29.760Z,2.30
2019-01-27T15:55:10.686Z,2.30
2019-01-27T15:57:51.884Z,2.23
2019-01-27T16:00:22.854Z,5.53
2019-01-27T16:03:10.873Z,3.93
2019-01-27T16:05:58.850Z,2.40
2019-01-27T16:08:47.025Z,2.10
2019-01-27T16:11:34.955Z,2.93
2019-01-27T16:14:03.551Z,3.00
2019-01-27T16:16:32.123Z,2.50
2019-01-27T16:19:00.737Z,3.07
2019-01-27T16:21:48.686Z,2.47
2019-01-27T16:24:21.900Z,2.90
2019-01-27T16:27:09.880Z,2.20
2019-01-27T16:33:02.353Z,4.10
2019-01-27T16:35:50.523Z,2.90
2019-01-27T16:38:38.436Z,2.20
2019-01-27T16:41:26.445Z,2.07
2019-01-27T16:43:55.029Z,5.53
2019-01-27T16:46:23.619Z,3.03
2019-01-27T16:49:11.561Z,2.30
2019-01-27T16:51:40.535Z,2.17
2019-01-27T16:54:28.433Z,5.97
2019-01-27T16:57:16.392Z,3.13
2019-01-27T17:00:05.160Z,3.03
2019-01-27T17:02:53.096Z,3.30
2019-01-27T17:05:41.007Z,1.97
2019-01-27T17:08:29.224Z,2.33
2019-01-27T17:11:17.147Z,3.67
2019-01-27T17:13:46.076Z,3.77
2019-01-27T17:16:34.056Z,2.47
2019-01-27T17:19:02.763Z,2.43
2019-01-27T17:21:31.624Z,3.23
2019-01-27T17:24:19.581Z,2.30
2019-01-27T17:27:07.503Z,4.17
2019-01-27T17:29:36.115Z,4.43
2019-01-27T17:32:24.029Z,2.57
2019-01-27T17:34:52.646Z,4.20
2019-01-27T17:37:40.564Z,2.57
2019-01-27T17:40:28.739Z,2.43
2019-01-27T17:43:16.614Z,3.50
2019-01-27T17:45:57.708Z,4.03
2019-01-27T17:48:38.767Z,4.77
2019-01-27T17:51:19.128Z,2.43
2019-01-27T17:54:01.637Z,3.87
2019-01-27T17:56:44.275Z,5.30
2019-01-27T17:59:40.269Z,3.73
2019-01-27T18:02:43.610Z,2.40
2019-01-27T18:05:20.687Z,4.50
2019-01-27T18:08:13.080Z,2.80
2019-01-27T18:11:20.056Z,5.50
2019-01-27T18:14:15.087Z,2.10
2019-01-27T18:17:02.960Z,5.83
2019-01-27T18:19:31.563Z,3.03
2019-01-27T18:22:00.134Z,3.97
2019-01-27T18:24:48.036Z,6.10
2019-01-27T18:27:35.945Z,5.70
2019-01-27T18:30:24.123Z,5.47
2019-01-27T18:33:12.019Z,8.13
2019-01-27T18:35:40.947Z,5.07
2019-01-27T18:38:29.124Z,7.77
2019-01-27T18:40:57.696Z,7.07
2019-01-27T18:43:45.701Z,6.83
2019-01-27T18:46:27.883Z,4.77
2019-01-27T18:49:08.963Z,4.20
2019-01-27T18:51:50.115Z,4.43
2019-01-27T18:54:37.807Z,5.10
2019-01-27T18:57:44.791Z,7.07
2019-01-27T19:00:21.299Z,5.13
2019-01-27T19:03:14.015Z,5.07
2019-01-27T19:06:09.988Z,6.00
2019-01-27T19:09:16.979Z,4.87
2019-01-27T19:12:04.648Z,3.60
2019-01-27T19:14:52.369Z,5.80
2019-01-27T19:17:59.209Z,5.17
2019-01-27T19:20:46.976Z,4.60
2019-01-27T19:23:34.780Z,5.73
2019-01-27T19:26:22.488Z,5.10
2019-01-27T19:29:10.144Z,4.87
2019-01-27T19:31:57.845Z,5.40
2019-01-27T19:35:04.859Z,6.90
2019-01-27T19:37:52.655Z,4.77
2019-01-27T19:40:59.674Z,4.70
2019-01-27T19:43:47.436Z,3.97
2019-01-27T19:46:35.121Z,4.00
2019-01-27T19:49:22.893Z,5.60
2019-01-27T19:52:10.588Z,5.77
2019-01-27T19:54:58.260Z,6.03
2019-01-27T19:57:34.839Z,6.80
2019-01-27T20:00:10.416Z,3.50
2019-01-27T20:02:47.238Z,5.83
2019-01-27T20:05:31.420Z,5.60
2019-01-27T20:11:13.472Z,3.40
2019-01-27T20:14:01.127Z,5.53
2019-01-27T20:16:49.072Z,4.43
2019-01-27T20:19:36.706Z,5.67
2019-01-27T20:22:24.345Z,4.30
2019-01-27T20:25:12.059Z,8.30
2019-01-27T20:27:59.728Z,6.87
2019-01-27T20:31:06.710Z,5.67
2019-01-27T20:34:13.744Z,7.23
2019-01-27T20:37:20.789Z,3.30
2019-01-27T20:40:29.046Z,4.30
2019-01-27T20:43:36.138Z,4.40
2019-01-27T20:46:22.397Z,3.83
2019-01-27T20:49:30.752Z,7.90
2019-01-27T20:52:18.452Z,3.83
2019-01-27T20:55:06.120Z,2.80
2019-01-27T20:57:59.901Z,3.37
2019-01-27T21:01:29.287Z,4.20
2019-01-27T21:04:17.595Z,2.63
2019-01-27T21:07:24.598Z,4.93
2019-01-27T21:10:31.608Z,2.63
2019-01-27T21:13:38.915Z,4.73
2019-01-27T21:16:36.557Z,14.30
2019-01-27T21:19:32.205Z,6.33
2019-01-27T21:22:20.114Z,2.70
2019-01-27T21:24:48.687Z,4.23
2019-01-27T21:27:17.267Z,9.20
2019-01-27T21:30:06.048Z,4.63
2019-01-27T21:32:55.728Z,6.00
2019-01-27T21:35:24.467Z,2.37
2019-01-27T21:38:12.412Z,4.93
2019-01-27T21:40:41.026Z,4.23
2019-01-27T21:43:09.597Z,5.07
2019-01-27T21:45:38.225Z,7.23
2019-01-27T21:48:26.175Z,4.87
2019-01-27T21:50:54.763Z,6.43
2019-01-27T21:53:23.339Z,2.87
2019-01-27T21:56:11.284Z,6.67
2019-01-27T21:58:39.847Z,3.53
2019-01-27T22:01:08.423Z,4.33
2019-01-27T22:03:56.597Z,4.00
2019-01-27T22:06:25.419Z,3.93
2019-01-27T22:08:54.005Z,7.77
2019-01-27T22:11:22.616Z,5.43
2019-01-27T22:13:51.208Z,5.23
2019-01-27T22:16:19.812Z,3.73
2019-01-27T22:18:48.372Z,4.17
2019-01-27T22:21:39.335Z,5.10
2019-01-27T22:24:07.908Z,6.17
2019-01-27T22:26:36.496Z,4.03
2019-01-27T22:29:05.082Z,5.73
2019-01-27T22:31:33.644Z,8.17
2019-01-27T22:34:02.484Z,4.10
2019-01-27T22:36:31.580Z,2.30
2019-01-27T22:39:00.207Z,3.53
2019-01-27T22:41:28.776Z,3.27
2019-01-27T22:43:57.359Z,2.23
2019-01-27T22:46:25.979Z,3.63
2019-01-27T22:48:54.575Z,5.37
2019-01-27T22:51:23.435Z,6.60
2019-01-27T22:53:52.016Z,6.10
2019-01-27T22:56:20.607Z,5.03
2019-01-27T22:58:49.415Z,3.57
2019-01-27T23:01:37.424Z,3.00
2019-01-27T23:04:06.954Z,4.37
2019-01-27T23:06:35.523Z,5.47
2019-01-27T23:09:23.440Z,4.73
2019-01-27T23:11:52.052Z,2.70
2019-01-27T23:14:20.631Z,3.90
2019-01-27T23:16:49.462Z,4.43
2019-01-27T23:19:18.063Z,11.83
2019-01-27T23:21:46.626Z,10.37
2019-01-27T23:24:15.228Z,4.77
2019-01-27T23:26:43.789Z,6.73
2019-01-27T23:29:12.376Z,4.73
2019-01-27T23:31:41.232Z,6.70
2019-01-27T23:34:10.064Z,3.80
2019-01-27T23:36:38.666Z,4.37
2019-01-27T23:39:09.286Z,5.60
2019-01-27T23:41:37.875Z,3.73
2019-01-27T23:44:06.444Z,5.10
2019-01-27T23:46:35.257Z,5.57
2019-01-27T23:49:03.882Z,3.83
2019-01-27T23:51:32.440Z,3.43
2019-01-27T23:54:01.023Z,2.60
2019-01-27T23:56:29.877Z,3.90
2019-01-27T23:58:58.723Z,5.90
